Terminal Aerodrome Forecast
Issued by NWS

Home | Current Version | Previous Version | Text Only | Print | Product List | Glossary On
Versions: 1 2 3 4 5 6 7 8 9 10 11 12 13 14 15 16 17 18 19 20 21 22 23 24 25 26
000
FTUS45 KGJT 231201 RRA
TAFEGE
TAF
KEGE 231201Z 2312/2412 VRB03KT P6SM -RA SCT040 OVC060
      TEMPO 2312/2316 4SM RA BKN040
     FM231600 24009KT P6SM VCSH SCT050 BKN080
     FM232000 24015KT P6SM VCTS SCT060CB BKN100
     FM240000 25012KT P6SM BKN100
     FM240600 10003KT P6SM SCT100
      AMD LTD TO CLD VIS AND WIND TIL 231300=

USA.gov is the U.S. government's official web portal to all federal, state and local government web resources and services.